Darrington, Mississippi
Current Conditions -  °F | °C
As of 3:35 PM on Friday 24 Oct 2014 (Local Time) from KHEZ Reporting Station
Clear Clear  
Wind Chill: 22°   Ceiling: Unl
Heat Index: 22°   Visibility: 10mi
Dew Point:   Wind: 9mph
Humidity: 38%   Direction: 340°NNW
Pressure: 30.1"   Gusts: NA
Location:  31.312°N, 90.9827°W
Report Text: KHEZ 242035Z AUTO 34008KT 10SM CLR 22/07 A3010 RMK AO1
Loading
Personal Weather Stations






























Interactive Weather Map
Tropical Storm Tracking
New forecast layout! Learn more

10-Day Weather Forecast

Advertisements
Track Severe Weather on mobile